sensor_id;sensor_type;location;lat;lon;timestamp;temperature;humidity
58339;DHT22;68636;52.704;6.536;2023-04-01T00:00:00;10.20;99.90
58339;DHT22;68636;52.704;6.536;2023-04-01T00:02:26;10.20;99.90
58339;DHT22;68636;52.704;6.536;2023-04-01T00:04:52;10.20;99.90
58339;DHT22;68636;52.704;6.536;2023-04-01T00:07:17;10.20;99.90
58339;DHT22;68636;52.704;6.536;2023-04-01T00:09:43;10.10;99.90
58339;DHT22;68636;52.704;6.536;2023-04-01T00:12:09;10.10;99.90
58339;DHT22;68636;52.704;6.536;2023-04-01T00:14:35;10.10;99.90
58339;DHT22;68636;52.704;6.536;2023-04-01T00:17:02;10.20;99.90
58339;DHT22;68636;52.704;6.536;2023-04-01T00:19:28;10.20;99.90
58339;DHT22;68636;52.704;6.536;2023-04-01T00:21:53;10.10;99.90
58339;DHT22;68636;52.704;6.536;2023-04-01T00:24:19;10.10;99.90
58339;DHT22;68636;52.704;6.536;2023-04-01T00:26:45;10.10;99.90
58339;DHT22;68636;52.704;6.536;2023-04-01T00:29:11;10.10;99.90
58339;DHT22;68636;52.704;6.536;2023-04-01T00:31:36;10.10;99.90
58339;DHT22;68636;52.704;6.536;2023-04-01T00:34:02;10.10;99.90
58339;DHT22;68636;52.704;6.536;2023-04-01T00:36:28;10.10;99.90
58339;DHT22;68636;52.704;6.536;2023-04-01T00:38:53;10.10;99.90
58339;DHT22;68636;52.704;6.536;2023-04-01T00:41:20;10.10;99.90
58339;DHT22;68636;52.704;6.536;2023-04-01T00:43:49;10.10;99.90
58339;DHT22;68636;52.704;6.536;2023-04-01T00:46:15;10.00;99.90
58339;DHT22;68636;52.704;6.536;2023-04-01T00:48:53;10.00;99.90
58339;DHT22;68636;52.704;6.536;2023-04-01T00:51:23;10.00;99.90
58339;DHT22;68636;52.704;6.536;2023-04-01T00:53:54;10.00;99.90
58339;DHT22;68636;52.704;6.536;2023-04-01T00:56:39;10.10;99.90
58339;DHT22;68636;52.704;6.536;2023-04-01T00:59:17;10.10;99.90
58339;DHT22;68636;52.704;6.536;2023-04-01T01:01:44;10.10;99.90
58339;DHT22;68636;52.704;6.536;2023-04-01T01:04:29;10.10;99.90
58339;DHT22;68636;52.704;6.536;2023-04-01T01:07:51;10.10;99.90
58339;DHT22;68636;52.704;6.536;2023-04-01T01:18:19;9.90;99.90
58339;DHT22;68636;52.704;6.536;2023-04-01T01:26:57;10.00;99.90
58339;DHT22;68636;52.704;6.536;2023-04-01T01:29:42;10.00;99.90
58339;DHT22;68636;52.704;6.536;2023-04-01T01:37:55;10.00;99.90
58339;DHT22;68636;52.704;6.536;2023-04-01T01:40:22;10.00;99.90
58339;DHT22;68636;52.704;6.536;2023-04-01T01:42:53;10.00;99.90
58339;DHT22;68636;52.704;6.536;2023-04-01T01:45:21;10.00;99.90
58339;DHT22;68636;52.704;6.536;2023-04-01T01:47:50;10.00;99.90
58339;DHT22;68636;52.704;6.536;2023-04-01T01:50:17;10.00;99.90
58339;DHT22;68636;52.704;6.536;2023-04-01T01:52:43;10.00;99.90
58339;DHT22;68636;52.704;6.536;2023-04-01T01:57:58;10.10;99.90
58339;DHT22;68636;52.704;6.536;2023-04-01T02:00:25;10.00;99.90
58339;DHT22;68636;52.704;6.536;2023-04-01T02:02:52;10.00;99.90
58339;DHT22;68636;52.704;6.536;2023-04-01T02:05:21;10.00;99.90
58339;DHT22;68636;52.704;6.536;2023-04-01T02:08:15;10.00;99.90
58339;DHT22;68636;52.704;6.536;2023-04-01T02:10:48;10.00;99.90
58339;DHT22;68636;52.704;6.536;2023-04-01T02:16:00;10.00;99.90
58339;DHT22;68636;52.704;6.536;2023-04-01T02:18:28;9.90;99.90
58339;DHT22;68636;52.704;6.536;2023-04-01T02:20:57;9.90;99.90
58339;DHT22;68636;52.704;6.536;2023-04-01T02:23:24;9.90;99.90
58339;DHT22;68636;52.704;6.536;2023-04-01T02:25:49;9.90;99.90
58339;DHT22;68636;52.704;6.536;2023-04-01T02:28:17;9.90;99.90
58339;DHT22;68636;52.704;6.536;2023-04-01T02:30:47;9.90;99.90
58339;DHT22;68636;52.704;6.536;2023-04-01T02:33:15;9.90;99.90
58339;DHT22;68636;52.704;6.536;2023-04-01T02:35:42;10.00;99.90
58339;DHT22;68636;52.704;6.536;2023-04-01T02:38:07;9.90;99.90
58339;DHT22;68636;52.704;6.536;2023-04-01T02:40:48;9.90;99.90
58339;DHT22;68636;52.704;6.536;2023-04-01T02:43:15;9.90;99.90
58339;DHT22;68636;52.704;6.536;2023-04-01T02:45:42;9.90;99.90
58339;DHT22;68636;52.704;6.536;2023-04-01T02:48:08;9.90;99.90
58339;DHT22;68636;52.704;6.536;2023-04-01T02:50:34;9.90;99.90
58339;DHT22;68636;52.704;6.536;2023-04-01T02:53:00;9.90;99.90
58339;DHT22;68636;52.704;6.536;2023-04-01T02:55:29;9.90;99.90
58339;DHT22;68636;52.704;6.536;2023-04-01T02:57:55;9.90;99.90
58339;DHT22;68636;52.704;6.536;2023-04-01T03:00:21;9.90;99.90
58339;DHT22;68636;52.704;6.536;2023-04-01T03:02:47;9.90;99.90
58339;DHT22;68636;52.704;6.536;2023-04-01T03:05:13;10.00;99.90
58339;DHT22;68636;52.704;6.536;2023-04-01T03:07:39;9.90;99.90
58339;DHT22;68636;52.704;6.536;2023-04-01T03:10:06;9.90;99.90
58339;DHT22;68636;52.704;6.536;2023-04-01T03:12:32;9.90;99.90
58339;DHT22;68636;52.704;6.536;2023-04-01T03:14:57;9.90;99.90
58339;DHT22;68636;52.704;6.536;2023-04-01T03:17:23;9.90;99.90
58339;DHT22;68636;52.704;6.536;2023-04-01T03:19:49;9.90;99.90
58339;DHT22;68636;52.704;6.536;2023-04-01T03:22:14;10.00;99.90
58339;DHT22;68636;52.704;6.536;2023-04-01T03:24:40;10.00;99.90
58339;DHT22;68636;52.704;6.536;2023-04-01T03:27:06;10.00;99.90
58339;DHT22;68636;52.704;6.536;2023-04-01T03:29:32;10.00;99.90
58339;DHT22;68636;52.704;6.536;2023-04-01T03:31:57;10.00;99.90
58339;DHT22;68636;52.704;6.536;2023-04-01T03:34:25;9.90;99.90
58339;DHT22;68636;52.704;6.536;2023-04-01T03:36:51;9.90;99.90
58339;DHT22;68636;52.704;6.536;2023-04-01T03:39:17;9.90;99.90
58339;DHT22;68636;52.704;6.536;2023-04-01T03:41:46;10.00;99.90
58339;DHT22;68636;52.704;6.536;2023-04-01T03:44:12;10.00;99.90
58339;DHT22;68636;52.704;6.536;2023-04-01T03:46:38;10.00;99.90
58339;DHT22;68636;52.704;6.536;2023-04-01T03:49:07;10.00;99.90
58339;DHT22;68636;52.704;6.536;2023-04-01T03:51:41;10.00;99.90
58339;DHT22;68636;52.704;6.536;2023-04-01T03:54:07;9.90;99.90
58339;DHT22;68636;52.704;6.536;2023-04-01T03:56:33;9.90;99.90
58339;DHT22;68636;52.704;6.536;2023-04-01T03:59:02;9.90;99.90
58339;DHT22;68636;52.704;6.536;2023-04-01T04:01:28;10.00;99.90
58339;DHT22;68636;52.704;6.536;2023-04-01T04:03:55;10.00;99.90
58339;DHT22;68636;52.704;6.536;2023-04-01T04:06:22;10.00;99.90
58339;DHT22;68636;52.704;6.536;2023-04-01T04:08:48;9.90;99.90
58339;DHT22;68636;52.704;6.536;2023-04-01T04:11:14;10.00;99.90
58339;DHT22;68636;52.704;6.536;2023-04-01T04:13:41;10.00;99.90
58339;DHT22;68636;52.704;6.536;2023-04-01T04:16:07;9.90;99.90
58339;DHT22;68636;52.704;6.536;2023-04-01T04:18:34;10.00;99.90
58339;DHT22;68636;52.704;6.536;2023-04-01T04:20:59;9.90;99.90
58339;DHT22;68636;52.704;6.536;2023-04-01T04:23:25;10.00;99.90
58339;DHT22;68636;52.704;6.536;2023-04-01T04:25:56;9.90;99.90
58339;DHT22;68636;52.704;6.536;2023-04-01T04:28:22;9.90;99.90
58339;DHT22;68636;52.704;6.536;2023-04-01T04:30:48;9.90;99.90
58339;DHT22;68636;52.704;6.536;2023-04-01T04:33:14;10.00;99.90
58339;DHT22;68636;52.704;6.536;2023-04-01T04:35:39;10.00;99.90
58339;DHT22;68636;52.704;6.536;2023-04-01T04:38:05;10.00;99.90
58339;DHT22;68636;52.704;6.536;2023-04-01T04:40:31;10.00;99.90
58339;DHT22;68636;52.704;6.536;2023-04-01T04:42:57;10.00;99.90
58339;DHT22;68636;52.704;6.536;2023-04-01T04:45:22;10.00;99.90
58339;DHT22;68636;52.704;6.536;2023-04-01T04:47:48;10.00;99.90
58339;DHT22;68636;52.704;6.536;2023-04-01T04:50:14;10.00;99.90
58339;DHT22;68636;52.704;6.536;2023-04-01T04:52:40;10.00;99.90
58339;DHT22;68636;52.704;6.536;2023-04-01T04:55:06;10.00;99.90
58339;DHT22;68636;52.704;6.536;2023-04-01T04:57:32;10.00;99.90
58339;DHT22;68636;52.704;6.536;2023-04-01T04:59:57;10.00;99.90
58339;DHT22;68636;52.704;6.536;2023-04-01T05:02:23;10.00;99.90
58339;DHT22;68636;52.704;6.536;2023-04-01T05:04:49;10.00;99.90
58339;DHT22;68636;52.704;6.536;2023-04-01T05:07:14;10.00;99.90
58339;DHT22;68636;52.704;6.536;2023-04-01T05:09:40;10.00;99.90
58339;DHT22;68636;52.704;6.536;2023-04-01T05:12:06;10.00;99.90
58339;DHT22;68636;52.704;6.536;2023-04-01T05:14:31;10.00;99.90
58339;DHT22;68636;52.704;6.536;2023-04-01T05:16:57;10.00;99.90
58339;DHT22;68636;52.704;6.536;2023-04-01T05:19:23;10.00;99.90
58339;DHT22;68636;52.704;6.536;2023-04-01T05:21:49;10.10;99.90
58339;DHT22;68636;52.704;6.536;2023-04-01T05:24:14;10.00;99.90
58339;DHT22;68636;52.704;6.536;2023-04-01T05:26:40;10.10;99.90
58339;DHT22;68636;52.704;6.536;2023-04-01T05:29:06;10.10;99.90
58339;DHT22;68636;52.704;6.536;2023-04-01T05:31:31;10.10;99.90
58339;DHT22;68636;52.704;6.536;2023-04-01T05:33:57;10.10;99.90
58339;DHT22;68636;52.704;6.536;2023-04-01T05:36:23;10.10;99.90
58339;DHT22;68636;52.704;6.536;2023-04-01T05:38:49;10.10;99.90
58339;DHT22;68636;52.704;6.536;2023-04-01T05:41:15;10.10;99.90
58339;DHT22;68636;52.704;6.536;2023-04-01T05:43:41;10.10;99.90
58339;DHT22;68636;52.704;6.536;2023-04-01T05:46:07;10.10;99.90
58339;DHT22;68636;52.704;6.536;2023-04-01T05:48:33;10.10;99.90
58339;DHT22;68636;52.704;6.536;2023-04-01T05:51:01;10.10;99.90
58339;DHT22;68636;52.704;6.536;2023-04-01T05:53:27;10.10;99.90
58339;DHT22;68636;52.704;6.536;2023-04-01T05:55:52;10.10;99.90
58339;DHT22;68636;52.704;6.536;2023-04-01T05:58:18;10.10;99.90
58339;DHT22;68636;52.704;6.536;2023-04-01T06:00:44;10.10;99.90
58339;DHT22;68636;52.704;6.536;2023-04-01T06:03:09;10.20;99.90
58339;DHT22;68636;52.704;6.536;2023-04-01T06:05:40;10.20;99.90
58339;DHT22;68636;52.704;6.536;2023-04-01T06:08:15;10.10;99.90
58339;DHT22;68636;52.704;6.536;2023-04-01T06:19:47;10.20;99.90
58339;DHT22;68636;52.704;6.536;2023-04-01T06:33:05;10.30;99.90
58339;DHT22;68636;52.704;6.536;2023-04-01T06:38:33;10.30;99.90
58339;DHT22;68636;52.704;6.536;2023-04-01T06:44:14;10.40;99.90
58339;DHT22;68636;52.704;6.536;2023-04-01T06:50:07;10.40;99.90
58339;DHT22;68636;52.704;6.536;2023-04-01T06:52:51;10.40;99.90
58339;DHT22;68636;52.704;6.536;2023-04-01T06:55:34;10.40;99.90
58339;DHT22;68636;52.704;6.536;2023-04-01T06:58:05;10.50;99.90
58339;DHT22;68636;52.704;6.536;2023-04-01T07:00:35;10.50;99.90
58339;DHT22;68636;52.704;6.536;2023-04-01T07:05:59;10.60;99.90
58339;DHT22;68636;52.704;6.536;2023-04-01T07:08:28;10.70;99.90
58339;DHT22;68636;52.704;6.536;2023-04-01T07:11:02;10.70;99.90
58339;DHT22;68636;52.704;6.536;2023-04-01T07:18:53;10.60;99.90
58339;DHT22;68636;52.704;6.536;2023-04-01T07:21:28;10.60;99.90
58339;DHT22;68636;52.704;6.536;2023-04-01T07:24:00;10.70;99.90
58339;DHT22;68636;52.704;6.536;2023-04-01T07:26:28;10.60;99.90
58339;DHT22;68636;52.704;6.536;2023-04-01T07:28:54;10.60;99.90
58339;DHT22;68636;52.704;6.536;2023-04-01T07:34:05;10.60;99.90
58339;DHT22;68636;52.704;6.536;2023-04-01T07:36:43;10.70;99.90
58339;DHT22;68636;52.704;6.536;2023-04-01T07:39:20;10.70;99.90
58339;DHT22;68636;52.704;6.536;2023-04-01T07:45:27;10.60;99.90
58339;DHT22;68636;52.704;6.536;2023-04-01T07:53:38;10.70;99.90
58339;DHT22;68636;52.704;6.536;2023-04-01T07:56:15;10.70;99.90
58339;DHT22;68636;52.704;6.536;2023-04-01T08:04:00;10.80;99.90
58339;DHT22;68636;52.704;6.536;2023-04-01T08:06:36;10.80;99.90
58339;DHT22;68636;52.704;6.536;2023-04-01T08:12:17;10.80;99.90
58339;DHT22;68636;52.704;6.536;2023-04-01T08:23:03;10.80;99.90
58339;DHT22;68636;52.704;6.536;2023-04-01T08:25:32;10.80;99.90
58339;DHT22;68636;52.704;6.536;2023-04-01T08:28:15;10.90;99.90
58339;DHT22;68636;52.704;6.536;2023-04-01T08:30:55;10.90;99.90
58339;DHT22;68636;52.704;6.536;2023-04-01T08:33:28;11.10;99.90
58339;DHT22;68636;52.704;6.536;2023-04-01T08:35:56;11.20;99.90
58339;DHT22;68636;52.704;6.536;2023-04-01T08:38:38;11.20;99.90
58339;DHT22;68636;52.704;6.536;2023-04-01T08:50:00;11.50;99.90
58339;DHT22;68636;52.704;6.536;2023-04-01T08:52:36;11.60;99.90
58339;DHT22;68636;52.704;6.536;2023-04-01T09:00:52;11.60;99.90
58339;DHT22;68636;52.704;6.536;2023-04-01T09:06:24;11.80;99.90
58339;DHT22;68636;52.704;6.536;2023-04-01T09:19:25;12.20;99.90
58339;DHT22;68636;52.704;6.536;2023-04-01T09:27:29;12.10;99.90
58339;DHT22;68636;52.704;6.536;2023-04-01T09:30:31;12.10;99.90
58339;DHT22;68636;52.704;6.536;2023-04-01T09:36:03;12.40;99.90
58339;DHT22;68636;52.704;6.536;2023-04-01T09:38:56;12.40;99.90
58339;DHT22;68636;52.704;6.536;2023-04-01T09:41:32;12.40;99.90
58339;DHT22;68636;52.704;6.536;2023-04-01T09:49:54;12.50;99.90
58339;DHT22;68636;52.704;6.536;2023-04-01T10:01:28;12.60;99.90
58339;DHT22;68636;52.704;6.536;2023-04-01T10:09:53;12.40;99.90
58339;DHT22;68636;52.704;6.536;2023-04-01T10:23:15;12.60;99.90
58339;DHT22;68636;52.704;6.536;2023-04-01T10:28:43;12.70;99.90
58339;DHT22;68636;52.704;6.536;2023-04-01T10:37:02;13.00;99.90
58339;DHT22;68636;52.704;6.536;2023-04-01T10:55:27;13.50;99.90
58339;DHT22;68636;52.704;6.536;2023-04-01T10:58:34;13.60;99.90
58339;DHT22;68636;52.704;6.536;2023-04-01T11:01:22;13.70;99.90
58339;DHT22;68636;52.704;6.536;2023-04-01T11:04:32;13.60;99.90
58339;DHT22;68636;52.704;6.536;2023-04-01T11:18:54;13.80;99.90
58339;DHT22;68636;52.704;6.536;2023-04-01T11:30:22;13.60;99.90
58339;DHT22;68636;52.704;6.536;2023-04-01T11:36:29;13.10;99.90
58339;DHT22;68636;52.704;6.536;2023-04-01T11:44:38;13.40;99.90
58339;DHT22;68636;52.704;6.536;2023-04-01T11:58:30;12.00;99.90
58339;DHT22;68636;52.704;6.536;2023-04-01T12:12:38;10.90;99.90
58339;DHT22;68636;52.704;6.536;2023-04-01T12:15:29;10.80;99.90
58339;DHT22;68636;52.704;6.536;2023-04-01T12:23:55;10.80;99.90
58339;DHT22;68636;52.704;6.536;2023-04-01T12:30:19;10.90;99.90
58339;DHT22;68636;52.704;6.536;2023-04-01T12:32:49;10.90;99.90
58339;DHT22;68636;52.704;6.536;2023-04-01T12:35:22;10.60;99.90
58339;DHT22;68636;52.704;6.536;2023-04-01T12:38:36;10.70;99.90
58339;DHT22;68636;52.704;6.536;2023-04-01T12:57:02;10.30;99.90
58339;DHT22;68636;52.704;6.536;2023-04-01T13:02:33;10.30;99.90
58339;DHT22;68636;52.704;6.536;2023-04-01T13:05:30;10.30;99.90
58339;DHT22;68636;52.704;6.536;2023-04-01T13:15:54;10.20;99.90
58339;DHT22;68636;52.704;6.536;2023-04-01T13:32:19;10.40;99.90
58339;DHT22;68636;52.704;6.536;2023-04-01T13:37:52;10.50;99.90
58339;DHT22;68636;52.704;6.536;2023-04-01T13:46:12;10.40;99.90
58339;DHT22;68636;52.704;6.536;2023-04-01T13:57:26;10.30;99.90
58339;DHT22;68636;52.704;6.536;2023-04-01T14:09:01;10.00;99.90
58339;DHT22;68636;52.704;6.536;2023-04-01T14:11:50;9.80;99.90
58339;DHT22;68636;52.704;6.536;2023-04-01T14:14:28;9.70;99.90
58339;DHT22;68636;52.704;6.536;2023-04-01T14:17:08;9.80;99.90
58339;DHT22;68636;52.704;6.536;2023-04-01T14:41:51;9.80;99.90
58339;DHT22;68636;52.704;6.536;2023-04-01T14:50:40;9.80;99.90
58339;DHT22;68636;52.704;6.536;2023-04-01T14:55:59;10.00;99.90
58339;DHT22;68636;52.704;6.536;2023-04-01T14:58:46;9.90;99.90
58339;DHT22;68636;52.704;6.536;2023-04-01T15:01:53;10.00;99.90
58339;DHT22;68636;52.704;6.536;2023-04-01T15:12:30;10.20;99.90
58339;DHT22;68636;52.704;6.536;2023-04-01T15:17:53;10.20;99.90
58339;DHT22;68636;52.704;6.536;2023-04-01T15:20:41;10.00;99.90
58339;DHT22;68636;52.704;6.536;2023-04-01T15:26:25;9.60;99.90
58339;DHT22;68636;52.704;6.536;2023-04-01T15:34:51;9.80;99.90
58339;DHT22;68636;52.704;6.536;2023-04-01T15:40:26;9.80;99.90
58339;DHT22;68636;52.704;6.536;2023-04-01T15:49:04;9.50;99.90
58339;DHT22;68636;52.704;6.536;2023-04-01T16:08:22;9.90;99.90
58339;DHT22;68636;52.704;6.536;2023-04-01T16:16:28;9.80;99.90
58339;DHT22;68636;52.704;6.536;2023-04-01T16:19:14;9.70;99.90
58339;DHT22;68636;52.704;6.536;2023-04-01T16:27:04;9.50;99.90
58339;DHT22;68636;52.704;6.536;2023-04-01T16:29:47;9.60;99.90
58339;DHT22;68636;52.704;6.536;2023-04-01T16:32:36;9.50;99.90
58339;DHT22;68636;52.704;6.536;2023-04-01T16:42:09;9.20;99.90
58339;DHT22;68636;52.704;6.536;2023-04-01T16:44:22;9.20;99.90
58339;DHT22;68636;52.704;6.536;2023-04-01T16:46:56;8.80;99.90
58339;DHT22;68636;52.704;6.536;2023-04-01T16:49:53;8.90;99.90
58339;DHT22;68636;52.704;6.536;2023-04-01T16:55:18;8.80;99.90
58339;DHT22;68636;52.704;6.536;2023-04-01T16:57:55;8.90;99.90
58339;DHT22;68636;52.704;6.536;2023-04-01T17:00:48;8.80;99.90
58339;DHT22;68636;52.704;6.536;2023-04-01T17:03:26;8.80;99.90
58339;DHT22;68636;52.704;6.536;2023-04-01T17:08:48;8.70;99.90
58339;DHT22;68636;52.704;6.536;2023-04-01T17:11:27;8.80;99.90
58339;DHT22;68636;52.704;6.536;2023-04-01T17:27:44;8.60;99.90
58339;DHT22;68636;52.704;6.536;2023-04-01T17:30:43;8.70;99.90
58339;DHT22;68636;52.704;6.536;2023-04-01T17:57:37;8.00;99.90
58339;DHT22;68636;52.704;6.536;2023-04-01T18:06:04;8.00;99.90
58339;DHT22;68636;52.704;6.536;2023-04-01T18:19:29;8.00;99.90
58339;DHT22;68636;52.704;6.536;2023-04-01T18:22:29;8.00;99.90
58339;DHT22;68636;52.704;6.536;2023-04-01T18:27:45;8.00;99.90
58339;DHT22;68636;52.704;6.536;2023-04-01T18:30:35;8.00;99.90
58339;DHT22;68636;52.704;6.536;2023-04-01T18:33:18;8.10;99.90
58339;DHT22;68636;52.704;6.536;2023-04-01T18:36:18;8.10;99.90
58339;DHT22;68636;52.704;6.536;2023-04-01T18:38:39;8.10;99.90
58339;DHT22;68636;52.704;6.536;2023-04-01T18:41:28;8.10;99.90
58339;DHT22;68636;52.704;6.536;2023-04-01T18:52:38;7.70;99.90
58339;DHT22;68636;52.704;6.536;2023-04-01T18:55:28;7.60;99.90
58339;DHT22;68636;52.704;6.536;2023-04-01T18:58:06;7.60;99.90
58339;DHT22;68636;52.704;6.536;2023-04-01T19:00:43;7.60;99.90
58339;DHT22;68636;52.704;6.536;2023-04-01T19:06:32;7.40;99.90
58339;DHT22;68636;52.704;6.536;2023-04-01T19:14:57;7.20;99.90
58339;DHT22;68636;52.704;6.536;2023-04-01T19:17:43;7.20;99.90
58339;DHT22;68636;52.704;6.536;2023-04-01T19:20:18;7.10;99.90
58339;DHT22;68636;52.704;6.536;2023-04-01T19:25:51;7.10;99.90
58339;DHT22;68636;52.704;6.536;2023-04-01T19:28:30;7.00;99.90
58339;DHT22;68636;52.704;6.536;2023-04-01T19:31:30;7.00;99.90
58339;DHT22;68636;52.704;6.536;2023-04-01T19:36:59;7.00;99.90
58339;DHT22;68636;52.704;6.536;2023-04-01T19:56:17;7.10;99.90
58339;DHT22;68636;52.704;6.536;2023-04-01T19:58:56;7.00;99.90
58339;DHT22;68636;52.704;6.536;2023-04-01T20:07:05;7.00;99.90
58339;DHT22;68636;52.704;6.536;2023-04-01T20:09:54;6.90;99.90
58339;DHT22;68636;52.704;6.536;2023-04-01T20:12:53;7.00;99.90
58339;DHT22;68636;52.704;6.536;2023-04-01T20:15:23;7.10;99.90
58339;DHT22;68636;52.704;6.536;2023-04-01T20:17:53;7.00;99.90
58339;DHT22;68636;52.704;6.536;2023-04-01T20:20:24;6.90;99.90
58339;DHT22;68636;52.704;6.536;2023-04-01T20:23:23;6.90;99.90
58339;DHT22;68636;52.704;6.536;2023-04-01T20:25:58;6.90;99.90
58339;DHT22;68636;52.704;6.536;2023-04-01T20:28:42;6.90;99.90
58339;DHT22;68636;52.704;6.536;2023-04-01T20:31:12;6.90;99.90
58339;DHT22;68636;52.704;6.536;2023-04-01T20:34:01;6.90;99.90
58339;DHT22;68636;52.704;6.536;2023-04-01T20:44:41;6.90;99.90
58339;DHT22;68636;52.704;6.536;2023-04-01T20:57:42;6.90;99.90
58339;DHT22;68636;52.704;6.536;2023-04-01T21:03:55;6.90;99.90
58339;DHT22;68636;52.704;6.536;2023-04-01T21:29:33;6.40;99.90
58339;DHT22;68636;52.704;6.536;2023-04-01T21:32:16;6.40;99.90
58339;DHT22;68636;52.704;6.536;2023-04-01T21:34:49;6.50;99.90
58339;DHT22;68636;52.704;6.536;2023-04-01T21:37:44;6.40;99.90
58339;DHT22;68636;52.704;6.536;2023-04-01T21:40:37;6.40;99.90
58339;DHT22;68636;52.704;6.536;2023-04-01T21:43:27;6.40;99.90
58339;DHT22;68636;52.704;6.536;2023-04-01T21:57:49;6.40;99.90
58339;DHT22;68636;52.704;6.536;2023-04-01T22:14:08;6.40;99.90
58339;DHT22;68636;52.704;6.536;2023-04-01T22:19:24;6.40;99.90
58339;DHT22;68636;52.704;6.536;2023-04-01T22:25:07;6.40;99.90
58339;DHT22;68636;52.704;6.536;2023-04-01T22:27:53;6.40;99.90
58339;DHT22;68636;52.704;6.536;2023-04-01T22:35:49;6.30;99.90
58339;DHT22;68636;52.704;6.536;2023-04-01T22:41:14;6.20;99.90
58339;DHT22;68636;52.704;6.536;2023-04-01T22:43:45;6.20;99.90
58339;DHT22;68636;52.704;6.536;2023-04-01T22:49:06;6.20;99.90
58339;DHT22;68636;52.704;6.536;2023-04-01T22:51:42;6.20;99.90
58339;DHT22;68636;52.704;6.536;2023-04-01T22:56:57;6.20;99.90
58339;DHT22;68636;52.704;6.536;2023-04-01T22:59:51;6.20;99.90
58339;DHT22;68636;52.704;6.536;2023-04-01T23:02:30;6.30;99.90
58339;DHT22;68636;52.704;6.536;2023-04-01T23:05:00;6.10;99.90
58339;DHT22;68636;52.704;6.536;2023-04-01T23:10:26;6.20;99.90
58339;DHT22;68636;52.704;6.536;2023-04-01T23:12:56;6.20;99.90
58339;DHT22;68636;52.704;6.536;2023-04-01T23:15:23;6.10;99.90
58339;DHT22;68636;52.704;6.536;2023-04-01T23:23:23;6.00;99.90
58339;DHT22;68636;52.704;6.536;2023-04-01T23:31:02;5.90;99.90
58339;DHT22;68636;52.704;6.536;2023-04-01T23:33:29;5.80;99.90
58339;DHT22;68636;52.704;6.536;2023-04-01T23:36:14;5.80;99.90
58339;DHT22;68636;52.704;6.536;2023-04-01T23:38:42;5.80;99.90
58339;DHT22;68636;52.704;6.536;2023-04-01T23:41:27;5.80;99.90
58339;DHT22;68636;52.704;6.536;2023-04-01T23:44:12;5.70;99.90
58339;DHT22;68636;52.704;6.536;2023-04-01T23:46:40;5.70;99.90
58339;DHT22;68636;52.704;6.536;2023-04-01T23:49:20;5.60;99.90
58339;DHT22;68636;52.704;6.536;2023-04-01T23:52:14;5.60;99.90
58339;DHT22;68636;52.704;6.536;2023-04-01T23:57:31;5.50;99.90
